sensor_id;sensor_type;location;lat;lon;timestamp;P1;durP1;ratioP1;P2;durP2;ratioP2
7605;SDS011;3844;53.360;9.738;2023-04-03T00:00:36;6.70;;;1.60;;
7605;SDS011;3844;53.360;9.738;2023-04-03T00:02:37;5.93;;;1.45;;
7605;SDS011;3844;53.360;9.738;2023-04-03T00:04:37;4.38;;;1.50;;
7605;SDS011;3844;53.360;9.738;2023-04-03T00:06:38;5.70;;;1.27;;
7605;SDS011;3844;53.360;9.738;2023-04-03T00:08:39;4.85;;;1.58;;
7605;SDS011;3844;53.360;9.738;2023-04-03T00:10:40;6.35;;;1.60;;
7605;SDS011;3844;53.360;9.738;2023-04-03T00:12:41;6.85;;;1.50;;
7605;SDS011;3844;53.360;9.738;2023-04-03T00:14:41;5.40;;;1.60;;
7605;SDS011;3844;53.360;9.738;2023-04-03T00:16:42;7.63;;;1.52;;
7605;SDS011;3844;53.360;9.738;2023-04-03T00:18:43;5.90;;;1.25;;
7605;SDS011;3844;53.360;9.738;2023-04-03T00:20:44;4.55;;;1.40;;
7605;SDS011;3844;53.360;9.738;2023-04-03T00:22:45;6.50;;;1.30;;
7605;SDS011;3844;53.360;9.738;2023-04-03T00:24:46;6.00;;;1.30;;
7605;SDS011;3844;53.360;9.738;2023-04-03T00:26:47;5.88;;;1.30;;
7605;SDS011;3844;53.360;9.738;2023-04-03T00:28:47;6.30;;;1.30;;
7605;SDS011;3844;53.360;9.738;2023-04-03T00:30:48;6.88;;;1.50;;
7605;SDS011;3844;53.360;9.738;2023-04-03T00:32:50;4.43;;;1.38;;
7605;SDS011;3844;53.360;9.738;2023-04-03T00:34:52;5.07;;;1.33;;
7605;SDS011;3844;53.360;9.738;2023-04-03T00:36:53;5.13;;;1.23;;
7605;SDS011;3844;53.360;9.738;2023-04-03T00:38:53;6.00;;;1.30;;
7605;SDS011;3844;53.360;9.738;2023-04-03T00:40:54;4.57;;;1.10;;
7605;SDS011;3844;53.360;9.738;2023-04-03T00:42:56;4.82;;;1.48;;
7605;SDS011;3844;53.360;9.738;2023-04-03T00:47:00;4.20;;;1.20;;
7605;SDS011;3844;53.360;9.738;2023-04-03T00:49:03;5.40;;;1.27;;
7605;SDS011;3844;53.360;9.738;2023-04-03T00:51:05;4.10;;;1.25;;
7605;SDS011;3844;53.360;9.738;2023-04-03T00:53:10;4.25;;;1.10;;
7605;SDS011;3844;53.360;9.738;2023-04-03T00:55:15;5.32;;;1.20;;
7605;SDS011;3844;53.360;9.738;2023-04-03T00:57:17;4.90;;;1.20;;
7605;SDS011;3844;53.360;9.738;2023-04-03T00:59:20;6.28;;;1.45;;
7605;SDS011;3844;53.360;9.738;2023-04-03T01:01:27;6.88;;;1.40;;
7605;SDS011;3844;53.360;9.738;2023-04-03T01:03:29;5.63;;;1.38;;
7605;SDS011;3844;53.360;9.738;2023-04-03T01:05:31;5.85;;;1.23;;
7605;SDS011;3844;53.360;9.738;2023-04-03T01:07:32;5.57;;;1.27;;
7605;SDS011;3844;53.360;9.738;2023-04-03T01:09:37;4.68;;;1.40;;
7605;SDS011;3844;53.360;9.738;2023-04-03T01:11:38;4.93;;;1.20;;
7605;SDS011;3844;53.360;9.738;2023-04-03T01:13:39;4.28;;;1.27;;
7605;SDS011;3844;53.360;9.738;2023-04-03T01:15:40;6.45;;;1.30;;
7605;SDS011;3844;53.360;9.738;2023-04-03T01:17:48;6.45;;;1.30;;
7605;SDS011;3844;53.360;9.738;2023-04-03T01:19:53;3.78;;;1.15;;
7605;SDS011;3844;53.360;9.738;2023-04-03T01:22:23;4.35;;;1.20;;
7605;SDS011;3844;53.360;9.738;2023-04-03T01:26:36;6.00;;;1.20;;
7605;SDS011;3844;53.360;9.738;2023-04-03T01:28:36;4.53;;;1.40;;
7605;SDS011;3844;53.360;9.738;2023-04-03T01:30:51;6.57;;;1.42;;
7605;SDS011;3844;53.360;9.738;2023-04-03T01:32:59;6.10;;;1.30;;
7605;SDS011;3844;53.360;9.738;2023-04-03T01:35:00;6.05;;;1.63;;
7605;SDS011;3844;53.360;9.738;2023-04-03T01:37:01;5.80;;;1.30;;
7605;SDS011;3844;53.360;9.738;2023-04-03T01:39:02;7.32;;;1.48;;
7605;SDS011;3844;53.360;9.738;2023-04-03T01:41:03;4.90;;;1.33;;
7605;SDS011;3844;53.360;9.738;2023-04-03T01:43:03;6.00;;;1.30;;
7605;SDS011;3844;53.360;9.738;2023-04-03T01:45:04;5.10;;;1.20;;
7605;SDS011;3844;53.360;9.738;2023-04-03T01:47:05;6.07;;;1.30;;
7605;SDS011;3844;53.360;9.738;2023-04-03T01:49:07;5.07;;;1.38;;
7605;SDS011;3844;53.360;9.738;2023-04-03T01:51:08;4.95;;;1.30;;
7605;SDS011;3844;53.360;9.738;2023-04-03T01:53:09;7.80;;;1.70;;
7605;SDS011;3844;53.360;9.738;2023-04-03T01:55:09;5.07;;;1.42;;
7605;SDS011;3844;53.360;9.738;2023-04-03T01:57:10;6.70;;;1.40;;
7605;SDS011;3844;53.360;9.738;2023-04-03T01:59:11;8.07;;;1.50;;
7605;SDS011;3844;53.360;9.738;2023-04-03T02:01:12;6.30;;;1.30;;
7605;SDS011;3844;53.360;9.738;2023-04-03T02:03:13;4.82;;;1.35;;
7605;SDS011;3844;53.360;9.738;2023-04-03T02:05:14;5.28;;;1.48;;
7605;SDS011;3844;53.360;9.738;2023-04-03T02:07:15;5.13;;;1.40;;
7605;SDS011;3844;53.360;9.738;2023-04-03T02:09:16;5.70;;;1.58;;
7605;SDS011;3844;53.360;9.738;2023-04-03T02:11:18;5.70;;;1.50;;
7605;SDS011;3844;53.360;9.738;2023-04-03T02:13:18;4.65;;;1.50;;
7605;SDS011;3844;53.360;9.738;2023-04-03T02:15:19;5.72;;;1.42;;
7605;SDS011;3844;53.360;9.738;2023-04-03T02:17:20;4.47;;;1.50;;
7605;SDS011;3844;53.360;9.738;2023-04-03T02:19:21;4.35;;;1.60;;
7605;SDS011;3844;53.360;9.738;2023-04-03T02:21:22;5.53;;;1.40;;
7605;SDS011;3844;53.360;9.738;2023-04-03T02:23:23;5.95;;;1.65;;
7605;SDS011;3844;53.360;9.738;2023-04-03T02:25:23;8.20;;;1.90;;
7605;SDS011;3844;53.360;9.738;2023-04-03T02:27:24;5.57;;;1.77;;
7605;SDS011;3844;53.360;9.738;2023-04-03T02:29:25;5.88;;;1.67;;
7605;SDS011;3844;53.360;9.738;2023-04-03T02:31:25;8.20;;;1.88;;
7605;SDS011;3844;53.360;9.738;2023-04-03T02:33:26;5.68;;;2.03;;
7605;SDS011;3844;53.360;9.738;2023-04-03T02:35:27;8.10;;;1.90;;
7605;SDS011;3844;53.360;9.738;2023-04-03T02:37:28;5.35;;;1.60;;
7605;SDS011;3844;53.360;9.738;2023-04-03T02:39:29;6.70;;;1.80;;
7605;SDS011;3844;53.360;9.738;2023-04-03T02:41:29;9.80;;;1.95;;
7605;SDS011;3844;53.360;9.738;2023-04-03T02:43:35;5.78;;;1.67;;
7605;SDS011;3844;53.360;9.738;2023-04-03T02:45:36;5.57;;;1.65;;
7605;SDS011;3844;53.360;9.738;2023-04-03T02:47:37;5.45;;;1.70;;
7605;SDS011;3844;53.360;9.738;2023-04-03T02:49:37;6.35;;;1.52;;
7605;SDS011;3844;53.360;9.738;2023-04-03T02:51:38;6.10;;;1.58;;
7605;SDS011;3844;53.360;9.738;2023-04-03T02:53:39;4.75;;;1.50;;
7605;SDS011;3844;53.360;9.738;2023-04-03T02:55:40;5.18;;;1.50;;
7605;SDS011;3844;53.360;9.738;2023-04-03T02:57:41;5.50;;;1.15;;
7605;SDS011;3844;53.360;9.738;2023-04-03T02:59:41;4.13;;;1.25;;
7605;SDS011;3844;53.360;9.738;2023-04-03T03:01:42;6.93;;;1.60;;
7605;SDS011;3844;53.360;9.738;2023-04-03T03:03:43;5.70;;;1.40;;
7605;SDS011;3844;53.360;9.738;2023-04-03T03:05:43;5.82;;;1.30;;
7605;SDS011;3844;53.360;9.738;2023-04-03T03:07:44;7.03;;;1.50;;
7605;SDS011;3844;53.360;9.738;2023-04-03T03:09:45;5.45;;;1.60;;
7605;SDS011;3844;53.360;9.738;2023-04-03T03:11:45;8.23;;;1.48;;
7605;SDS011;3844;53.360;9.738;2023-04-03T03:13:46;7.55;;;1.60;;
7605;SDS011;3844;53.360;9.738;2023-04-03T03:15:47;4.65;;;1.33;;
7605;SDS011;3844;53.360;9.738;2023-04-03T03:17:48;5.50;;;1.58;;
7605;SDS011;3844;53.360;9.738;2023-04-03T03:19:48;4.03;;;1.40;;
7605;SDS011;3844;53.360;9.738;2023-04-03T03:21:49;5.57;;;1.50;;
7605;SDS011;3844;53.360;9.738;2023-04-03T03:23:51;4.70;;;1.73;;
7605;SDS011;3844;53.360;9.738;2023-04-03T03:25:55;4.97;;;1.25;;
7605;SDS011;3844;53.360;9.738;2023-04-03T03:27:57;6.03;;;1.40;;
7605;SDS011;3844;53.360;9.738;2023-04-03T03:29:58;3.47;;;1.20;;
7605;SDS011;3844;53.360;9.738;2023-04-03T03:31:59;6.60;;;1.40;;
7605;SDS011;3844;53.360;9.738;2023-04-03T03:34:00;7.15;;;1.30;;
7605;SDS011;3844;53.360;9.738;2023-04-03T03:36:00;6.97;;;1.23;;
7605;SDS011;3844;53.360;9.738;2023-04-03T03:38:01;6.43;;;1.42;;
7605;SDS011;3844;53.360;9.738;2023-04-03T03:40:02;8.05;;;1.30;;
7605;SDS011;3844;53.360;9.738;2023-04-03T03:42:03;5.30;;;1.40;;
7605;SDS011;3844;53.360;9.738;2023-04-03T03:44:03;5.95;;;1.45;;
7605;SDS011;3844;53.360;9.738;2023-04-03T03:46:04;5.82;;;1.45;;
7605;SDS011;3844;53.360;9.738;2023-04-03T03:48:05;8.52;;;1.65;;
7605;SDS011;3844;53.360;9.738;2023-04-03T03:50:06;4.60;;;1.08;;
7605;SDS011;3844;53.360;9.738;2023-04-03T03:52:07;4.40;;;1.30;;
7605;SDS011;3844;53.360;9.738;2023-04-03T03:54:10;5.03;;;1.23;;
7605;SDS011;3844;53.360;9.738;2023-04-03T03:56:11;5.07;;;1.33;;
7605;SDS011;3844;53.360;9.738;2023-04-03T03:58:11;6.13;;;1.60;;
7605;SDS011;3844;53.360;9.738;2023-04-03T04:00:12;5.00;;;1.50;;
7605;SDS011;3844;53.360;9.738;2023-04-03T04:02:14;4.72;;;1.40;;
7605;SDS011;3844;53.360;9.738;2023-04-03T04:04:15;4.13;;;1.20;;
7605;SDS011;3844;53.360;9.738;2023-04-03T04:06:16;5.32;;;1.40;;
7605;SDS011;3844;53.360;9.738;2023-04-03T04:08:17;6.35;;;1.50;;
7605;SDS011;3844;53.360;9.738;2023-04-03T04:10:17;5.57;;;1.33;;
7605;SDS011;3844;53.360;9.738;2023-04-03T04:12:18;6.30;;;1.52;;
7605;SDS011;3844;53.360;9.738;2023-04-03T04:14:20;4.75;;;1.30;;
7605;SDS011;3844;53.360;9.738;2023-04-03T04:16:21;5.38;;;1.50;;
7605;SDS011;3844;53.360;9.738;2023-04-03T04:18:21;5.55;;;1.50;;
7605;SDS011;3844;53.360;9.738;2023-04-03T04:20:22;6.93;;;1.50;;
7605;SDS011;3844;53.360;9.738;2023-04-03T04:22:23;5.10;;;1.35;;
7605;SDS011;3844;53.360;9.738;2023-04-03T04:24:24;4.55;;;1.38;;
7605;SDS011;3844;53.360;9.738;2023-04-03T04:26:25;4.32;;;1.40;;
7605;SDS011;3844;53.360;9.738;2023-04-03T04:28:26;6.55;;;1.58;;
7605;SDS011;3844;53.360;9.738;2023-04-03T04:30:26;5.20;;;1.48;;
7605;SDS011;3844;53.360;9.738;2023-04-03T04:32:27;7.30;;;1.73;;
7605;SDS011;3844;53.360;9.738;2023-04-03T04:34:28;7.00;;;1.52;;
7605;SDS011;3844;53.360;9.738;2023-04-03T04:36:29;8.80;;;2.15;;
7605;SDS011;3844;53.360;9.738;2023-04-03T04:38:30;4.13;;;1.30;;
7605;SDS011;3844;53.360;9.738;2023-04-03T04:40:30;5.45;;;1.63;;
7605;SDS011;3844;53.360;9.738;2023-04-03T04:42:31;7.85;;;1.63;;
7605;SDS011;3844;53.360;9.738;2023-04-03T04:44:32;4.57;;;1.42;;
7605;SDS011;3844;53.360;9.738;2023-04-03T04:46:33;5.00;;;1.40;;
7605;SDS011;3844;53.360;9.738;2023-04-03T04:48:34;4.75;;;1.50;;
7605;SDS011;3844;53.360;9.738;2023-04-03T04:50:35;4.82;;;1.52;;
7605;SDS011;3844;53.360;9.738;2023-04-03T04:52:36;5.82;;;1.45;;
7605;SDS011;3844;53.360;9.738;2023-04-03T04:54:36;6.28;;;1.50;;
7605;SDS011;3844;53.360;9.738;2023-04-03T04:56:37;4.25;;;1.38;;
7605;SDS011;3844;53.360;9.738;2023-04-03T04:58:38;5.13;;;1.67;;
7605;SDS011;3844;53.360;9.738;2023-04-03T05:00:39;4.80;;;1.30;;
7605;SDS011;3844;53.360;9.738;2023-04-03T05:02:40;4.35;;;1.40;;
7605;SDS011;3844;53.360;9.738;2023-04-03T05:04:41;4.32;;;1.40;;
7605;SDS011;3844;53.360;9.738;2023-04-03T05:06:41;3.78;;;1.40;;
7605;SDS011;3844;53.360;9.738;2023-04-03T05:08:42;4.70;;;1.35;;
7605;SDS011;3844;53.360;9.738;2023-04-03T05:10:44;5.50;;;1.73;;
7605;SDS011;3844;53.360;9.738;2023-04-03T05:12:45;5.63;;;1.73;;
7605;SDS011;3844;53.360;9.738;2023-04-03T05:14:46;4.63;;;1.50;;
7605;SDS011;3844;53.360;9.738;2023-04-03T05:16:47;5.90;;;1.50;;
7605;SDS011;3844;53.360;9.738;2023-04-03T05:18:47;5.93;;;1.80;;
7605;SDS011;3844;53.360;9.738;2023-04-03T05:20:49;6.43;;;1.75;;
7605;SDS011;3844;53.360;9.738;2023-04-03T05:22:50;5.72;;;1.60;;
7605;SDS011;3844;53.360;9.738;2023-04-03T05:24:51;5.78;;;1.42;;
7605;SDS011;3844;53.360;9.738;2023-04-03T05:26:51;6.00;;;1.67;;
7605;SDS011;3844;53.360;9.738;2023-04-03T05:28:52;6.88;;;1.63;;
7605;SDS011;3844;53.360;9.738;2023-04-03T05:30:54;11.23;;;1.73;;
7605;SDS011;3844;53.360;9.738;2023-04-03T05:32:56;6.35;;;1.73;;
7605;SDS011;3844;53.360;9.738;2023-04-03T05:34:59;5.55;;;1.60;;
7605;SDS011;3844;53.360;9.738;2023-04-03T05:36:59;4.28;;;1.55;;
7605;SDS011;3844;53.360;9.738;2023-04-03T05:39:00;6.65;;;1.80;;
7605;SDS011;3844;53.360;9.738;2023-04-03T05:41:01;6.40;;;1.70;;
7605;SDS011;3844;53.360;9.738;2023-04-03T05:43:02;8.10;;;1.88;;
7605;SDS011;3844;53.360;9.738;2023-04-03T05:45:03;7.25;;;1.80;;
7605;SDS011;3844;53.360;9.738;2023-04-03T05:47:04;5.38;;;1.60;;
7605;SDS011;3844;53.360;9.738;2023-04-03T05:49:05;5.45;;;1.65;;
7605;SDS011;3844;53.360;9.738;2023-04-03T05:51:06;5.75;;;1.90;;
7605;SDS011;3844;53.360;9.738;2023-04-03T05:53:17;5.07;;;1.95;;
7605;SDS011;3844;53.360;9.738;2023-04-03T05:55:22;5.10;;;1.70;;
7605;SDS011;3844;53.360;9.738;2023-04-03T05:57:23;7.40;;;1.92;;
7605;SDS011;3844;53.360;9.738;2023-04-03T05:59:24;5.32;;;1.58;;
7605;SDS011;3844;53.360;9.738;2023-04-03T06:01:25;6.68;;;1.90;;
7605;SDS011;3844;53.360;9.738;2023-04-03T06:03:26;8.02;;;1.90;;
7605;SDS011;3844;53.360;9.738;2023-04-03T06:05:27;5.93;;;2.03;;
7605;SDS011;3844;53.360;9.738;2023-04-03T06:07:27;6.05;;;1.75;;
7605;SDS011;3844;53.360;9.738;2023-04-03T06:09:28;8.07;;;1.95;;
7605;SDS011;3844;53.360;9.738;2023-04-03T06:11:29;6.00;;;2.03;;
7605;SDS011;3844;53.360;9.738;2023-04-03T06:13:29;7.25;;;2.00;;
7605;SDS011;3844;53.360;9.738;2023-04-03T06:15:30;6.13;;;2.25;;
7605;SDS011;3844;53.360;9.738;2023-04-03T06:17:31;10.52;;;2.17;;
7605;SDS011;3844;53.360;9.738;2023-04-03T06:19:32;10.23;;;2.38;;
7605;SDS011;3844;53.360;9.738;2023-04-03T06:21:33;10.35;;;2.40;;
7605;SDS011;3844;53.360;9.738;2023-04-03T06:23:34;7.50;;;2.25;;
7605;SDS011;3844;53.360;9.738;2023-04-03T06:25:34;6.05;;;2.42;;
7605;SDS011;3844;53.360;9.738;2023-04-03T06:27:35;6.13;;;2.50;;
7605;SDS011;3844;53.360;9.738;2023-04-03T06:29:36;8.25;;;2.53;;
7605;SDS011;3844;53.360;9.738;2023-04-03T06:31:37;8.10;;;2.50;;
7605;SDS011;3844;53.360;9.738;2023-04-03T06:33:37;7.03;;;2.38;;
7605;SDS011;3844;53.360;9.738;2023-04-03T06:35:38;8.85;;;2.65;;
7605;SDS011;3844;53.360;9.738;2023-04-03T06:37:41;5.32;;;2.42;;
7605;SDS011;3844;53.360;9.738;2023-04-03T06:39:48;8.35;;;2.22;;
7605;SDS011;3844;53.360;9.738;2023-04-03T06:41:49;6.43;;;2.30;;
7605;SDS011;3844;53.360;9.738;2023-04-03T06:43:50;6.47;;;2.30;;
7605;SDS011;3844;53.360;9.738;2023-04-03T06:45:51;8.52;;;2.42;;
7605;SDS011;3844;53.360;9.738;2023-04-03T06:47:52;7.00;;;2.63;;
7605;SDS011;3844;53.360;9.738;2023-04-03T06:49:52;6.10;;;2.50;;
7605;SDS011;3844;53.360;9.738;2023-04-03T06:51:53;6.10;;;2.20;;
7605;SDS011;3844;53.360;9.738;2023-04-03T06:53:55;5.65;;;2.30;;
7605;SDS011;3844;53.360;9.738;2023-04-03T06:55:57;6.35;;;2.58;;
7605;SDS011;3844;53.360;9.738;2023-04-03T06:57:58;11.80;;;4.40;;
7605;SDS011;3844;53.360;9.738;2023-04-03T06:59:59;8.52;;;3.67;;
7605;SDS011;3844;53.360;9.738;2023-04-03T07:02:00;7.78;;;2.97;;
7605;SDS011;3844;53.360;9.738;2023-04-03T07:04:01;7.93;;;3.30;;
7605;SDS011;3844;53.360;9.738;2023-04-03T07:06:02;9.10;;;2.75;;
7605;SDS011;3844;53.360;9.738;2023-04-03T07:08:04;7.38;;;2.88;;
7605;SDS011;3844;53.360;9.738;2023-04-03T07:10:05;8.90;;;3.10;;
7605;SDS011;3844;53.360;9.738;2023-04-03T07:12:06;8.68;;;2.75;;
7605;SDS011;3844;53.360;9.738;2023-04-03T07:14:07;7.63;;;2.47;;
7605;SDS011;3844;53.360;9.738;2023-04-03T07:16:08;6.88;;;2.08;;
7605;SDS011;3844;53.360;9.738;2023-04-03T07:18:08;5.65;;;1.40;;
7605;SDS011;3844;53.360;9.738;2023-04-03T07:20:09;5.68;;;1.48;;
7605;SDS011;3844;53.360;9.738;2023-04-03T07:22:10;8.02;;;1.90;;
7605;SDS011;3844;53.360;9.738;2023-04-03T07:24:12;6.35;;;1.80;;
7605;SDS011;3844;53.360;9.738;2023-04-03T07:26:12;7.28;;;1.45;;
7605;SDS011;3844;53.360;9.738;2023-04-03T07:28:13;5.85;;;1.00;;
7605;SDS011;3844;53.360;9.738;2023-04-03T07:30:15;5.30;;;1.10;;
7605;SDS011;3844;53.360;9.738;2023-04-03T07:32:16;6.43;;;1.00;;
7605;SDS011;3844;53.360;9.738;2023-04-03T07:34:17;4.38;;;0.93;;
7605;SDS011;3844;53.360;9.738;2023-04-03T07:36:19;4.15;;;0.90;;
7605;SDS011;3844;53.360;9.738;2023-04-03T07:38:20;4.82;;;1.00;;
7605;SDS011;3844;53.360;9.738;2023-04-03T07:40:21;4.90;;;0.98;;
7605;SDS011;3844;53.360;9.738;2023-04-03T07:42:22;5.00;;;0.90;;
7605;SDS011;3844;53.360;9.738;2023-04-03T07:44:23;3.78;;;0.95;;
7605;SDS011;3844;53.360;9.738;2023-04-03T07:46:24;5.15;;;0.95;;
7605;SDS011;3844;53.360;9.738;2023-04-03T07:48:26;4.13;;;1.00;;
7605;SDS011;3844;53.360;9.738;2023-04-03T07:50:26;4.78;;;0.90;;
7605;SDS011;3844;53.360;9.738;2023-04-03T07:52:27;3.50;;;0.80;;
7605;SDS011;3844;53.360;9.738;2023-04-03T07:54:28;4.90;;;0.80;;
7605;SDS011;3844;53.360;9.738;2023-04-03T07:56:28;5.22;;;0.80;;
7605;SDS011;3844;53.360;9.738;2023-04-03T07:58:29;4.38;;;0.90;;
7605;SDS011;3844;53.360;9.738;2023-04-03T08:00:30;3.15;;;0.80;;
7605;SDS011;3844;53.360;9.738;2023-04-03T08:02:31;4.70;;;0.82;;
7605;SDS011;3844;53.360;9.738;2023-04-03T08:04:32;4.43;;;1.05;;
7605;SDS011;3844;53.360;9.738;2023-04-03T08:06:33;3.63;;;1.13;;
7605;SDS011;3844;53.360;9.738;2023-04-03T08:08:36;3.75;;;0.90;;
7605;SDS011;3844;53.360;9.738;2023-04-03T08:10:37;4.13;;;1.02;;
7605;SDS011;3844;53.360;9.738;2023-04-03T08:12:38;4.85;;;1.00;;
7605;SDS011;3844;53.360;9.738;2023-04-03T08:14:38;4.60;;;0.93;;
7605;SDS011;3844;53.360;9.738;2023-04-03T08:16:39;4.03;;;0.90;;
7605;SDS011;3844;53.360;9.738;2023-04-03T08:18:40;3.95;;;1.02;;
7605;SDS011;3844;53.360;9.738;2023-04-03T08:20:41;4.88;;;0.95;;
7605;SDS011;3844;53.360;9.738;2023-04-03T08:22:42;5.22;;;0.98;;
7605;SDS011;3844;53.360;9.738;2023-04-03T08:24:43;4.88;;;1.13;;
7605;SDS011;3844;53.360;9.738;2023-04-03T08:26:44;3.40;;;0.90;;
7605;SDS011;3844;53.360;9.738;2023-04-03T08:28:45;5.95;;;1.10;;
7605;SDS011;3844;53.360;9.738;2023-04-03T08:30:46;5.65;;;0.95;;
7605;SDS011;3844;53.360;9.738;2023-04-03T08:32:46;5.50;;;1.10;;
7605;SDS011;3844;53.360;9.738;2023-04-03T08:34:47;5.82;;;1.13;;
7605;SDS011;3844;53.360;9.738;2023-04-03T08:36:48;4.45;;;0.98;;
7605;SDS011;3844;53.360;9.738;2023-04-03T08:38:49;4.00;;;0.88;;
7605;SDS011;3844;53.360;9.738;2023-04-03T08:43:52;3.50;;;0.80;;
7605;SDS011;3844;53.360;9.738;2023-04-03T08:46:05;5.28;;;1.10;;
7605;SDS011;3844;53.360;9.738;2023-04-03T08:48:15;4.57;;;1.00;;
7605;SDS011;3844;53.360;9.738;2023-04-03T08:50:29;3.80;;;0.98;;
7605;SDS011;3844;53.360;9.738;2023-04-03T08:52:38;4.50;;;1.10;;
7605;SDS011;3844;53.360;9.738;2023-04-03T08:54:58;7.05;;;1.13;;
7605;SDS011;3844;53.360;9.738;2023-04-03T08:57:02;4.22;;;0.90;;
7605;SDS011;3844;53.360;9.738;2023-04-03T08:59:09;3.55;;;0.90;;
7605;SDS011;3844;53.360;9.738;2023-04-03T09:01:21;5.18;;;1.00;;
7605;SDS011;3844;53.360;9.738;2023-04-03T09:03:28;3.80;;;0.95;;
7605;SDS011;3844;53.360;9.738;2023-04-03T09:05:33;4.13;;;0.90;;
7605;SDS011;3844;53.360;9.738;2023-04-03T09:07:45;3.83;;;1.10;;
7605;SDS011;3844;53.360;9.738;2023-04-03T09:09:55;5.20;;;1.05;;
7605;SDS011;3844;53.360;9.738;2023-04-03T09:12:06;4.50;;;1.00;;
7605;SDS011;3844;53.360;9.738;2023-04-03T09:16:23;3.45;;;0.80;;
7605;SDS011;3844;53.360;9.738;2023-04-03T09:18:32;4.55;;;0.90;;
7605;SDS011;3844;53.360;9.738;2023-04-03T09:22:41;5.43;;;1.00;;
7605;SDS011;3844;53.360;9.738;2023-04-03T09:24:45;4.05;;;0.90;;
7605;SDS011;3844;53.360;9.738;2023-04-03T09:26:58;3.78;;;0.88;;
7605;SDS011;3844;53.360;9.738;2023-04-03T09:33:28;3.22;;;0.80;;
7605;SDS011;3844;53.360;9.738;2023-04-03T09:35:31;3.80;;;0.70;;
7605;SDS011;3844;53.360;9.738;2023-04-03T09:39:51;3.53;;;0.90;;
7605;SDS011;3844;53.360;9.738;2023-04-03T09:44:00;4.53;;;1.05;;
7605;SDS011;3844;53.360;9.738;2023-04-03T09:46:18;3.20;;;0.70;;
7605;SDS011;3844;53.360;9.738;2023-04-03T09:48:30;3.80;;;0.90;;
7605;SDS011;3844;53.360;9.738;2023-04-03T09:50:30;3.53;;;0.90;;
7605;SDS011;3844;53.360;9.738;2023-04-03T09:52:31;4.25;;;0.70;;
7605;SDS011;3844;53.360;9.738;2023-04-03T09:54:34;3.13;;;0.80;;
7605;SDS011;3844;53.360;9.738;2023-04-03T09:56:38;3.50;;;0.85;;
7605;SDS011;3844;53.360;9.738;2023-04-03T09:58:39;3.78;;;1.05;;
7605;SDS011;3844;53.360;9.738;2023-04-03T10:00:41;4.28;;;0.98;;
7605;SDS011;3844;53.360;9.738;2023-04-03T10:02:42;3.78;;;0.90;;
7605;SDS011;3844;53.360;9.738;2023-04-03T10:04:43;3.88;;;0.80;;
7605;SDS011;3844;53.360;9.738;2023-04-03T10:06:48;3.55;;;0.77;;
7605;SDS011;3844;53.360;9.738;2023-04-03T10:09:02;2.78;;;0.77;;
7605;SDS011;3844;53.360;9.738;2023-04-03T10:15:15;5.78;;;0.90;;
7605;SDS011;3844;53.360;9.738;2023-04-03T10:17:22;3.03;;;0.80;;
7605;SDS011;3844;53.360;9.738;2023-04-03T10:19:37;3.85;;;1.13;;
7605;SDS011;3844;53.360;9.738;2023-04-03T10:21:46;4.38;;;1.15;;
7605;SDS011;3844;53.360;9.738;2023-04-03T10:24:41;3.20;;;1.00;;
7605;SDS011;3844;53.360;9.738;2023-04-03T10:28:46;3.75;;;0.80;;
7605;SDS011;3844;53.360;9.738;2023-04-03T10:31:25;4.05;;;0.90;;
7605;SDS011;3844;53.360;9.738;2023-04-03T10:40:10;4.65;;;1.10;;
7605;SDS011;3844;53.360;9.738;2023-04-03T10:42:35;5.78;;;1.05;;
7605;SDS011;3844;53.360;9.738;2023-04-03T10:44:55;3.35;;;1.00;;
7605;SDS011;3844;53.360;9.738;2023-04-03T10:49:21;3.22;;;0.95;;
7605;SDS011;3844;53.360;9.738;2023-04-03T10:54:31;3.22;;;0.80;;
7605;SDS011;3844;53.360;9.738;2023-04-03T10:56:37;5.30;;;1.00;;
7605;SDS011;3844;53.360;9.738;2023-04-03T10:58:48;3.97;;;0.80;;
7605;SDS011;3844;53.360;9.738;2023-04-03T11:00:54;5.38;;;0.90;;
7605;SDS011;3844;53.360;9.738;2023-04-03T11:03:03;4.78;;;1.00;;
7605;SDS011;3844;53.360;9.738;2023-04-03T11:07:43;3.67;;;1.02;;
7605;SDS011;3844;53.360;9.738;2023-04-03T11:09:48;4.68;;;1.10;;
7605;SDS011;3844;53.360;9.738;2023-04-03T11:12:00;3.63;;;1.00;;
7605;SDS011;3844;53.360;9.738;2023-04-03T11:16:18;3.13;;;1.20;;
7605;SDS011;3844;53.360;9.738;2023-04-03T11:18:37;4.63;;;1.30;;
7605;SDS011;3844;53.360;9.738;2023-04-03T11:20:50;4.38;;;0.90;;
7605;SDS011;3844;53.360;9.738;2023-04-03T11:23:02;3.13;;;0.90;;
7605;SDS011;3844;53.360;9.738;2023-04-03T11:27:17;3.63;;;0.90;;
7605;SDS011;3844;53.360;9.738;2023-04-03T11:29:24;3.55;;;1.10;;
7605;SDS011;3844;53.360;9.738;2023-04-03T11:36:28;5.93;;;1.08;;
7605;SDS011;3844;53.360;9.738;2023-04-03T11:38:33;4.70;;;1.20;;
7605;SDS011;3844;53.360;9.738;2023-04-03T11:40:39;4.32;;;1.17;;
7605;SDS011;3844;53.360;9.738;2023-04-03T11:42:41;3.70;;;1.17;;
7605;SDS011;3844;53.360;9.738;2023-04-03T11:44:45;2.83;;;0.90;;
7605;SDS011;3844;53.360;9.738;2023-04-03T11:46:54;3.88;;;1.00;;
7605;SDS011;3844;53.360;9.738;2023-04-03T11:48:56;3.90;;;0.95;;
7605;SDS011;3844;53.360;9.738;2023-04-03T11:51:42;4.15;;;1.02;;
7605;SDS011;3844;53.360;9.738;2023-04-03T11:53:37;3.35;;;0.98;;
7605;SDS011;3844;53.360;9.738;2023-04-03T11:55:51;2.72;;;0.98;;
7605;SDS011;3844;53.360;9.738;2023-04-03T11:59:57;4.82;;;1.27;;
7605;SDS011;3844;53.360;9.738;2023-04-03T12:01:58;3.80;;;1.02;;
7605;SDS011;3844;53.360;9.738;2023-04-03T12:04:07;4.10;;;1.15;;
7605;SDS011;3844;53.360;9.738;2023-04-03T12:08:23;3.53;;;1.10;;
7605;SDS011;3844;53.360;9.738;2023-04-03T12:10:29;5.15;;;1.10;;
7605;SDS011;3844;53.360;9.738;2023-04-03T12:12:32;3.53;;;0.90;;
7605;SDS011;3844;53.360;9.738;2023-04-03T12:14:38;7.43;;;1.10;;
7605;SDS011;3844;53.360;9.738;2023-04-03T12:18:44;3.53;;;1.00;;
7605;SDS011;3844;53.360;9.738;2023-04-03T12:20:58;4.40;;;1.20;;
7605;SDS011;3844;53.360;9.738;2023-04-03T12:23:22;3.20;;;0.88;;
7605;SDS011;3844;53.360;9.738;2023-04-03T12:27:50;4.00;;;1.10;;
7605;SDS011;3844;53.360;9.738;2023-04-03T12:32:39;4.35;;;0.88;;
7605;SDS011;3844;53.360;9.738;2023-04-03T12:39:41;3.45;;;1.00;;
7605;SDS011;3844;53.360;9.738;2023-04-03T12:46:15;5.78;;;1.10;;
7605;SDS011;3844;53.360;9.738;2023-04-03T12:48:21;3.65;;;0.80;;
7605;SDS011;3844;53.360;9.738;2023-04-03T12:50:30;5.80;;;0.93;;
7605;SDS011;3844;53.360;9.738;2023-04-03T12:54:37;2.53;;;0.73;;
7605;SDS011;3844;53.360;9.738;2023-04-03T12:56:39;2.78;;;0.80;;
7605;SDS011;3844;53.360;9.738;2023-04-03T12:58:40;3.15;;;1.00;;
7605;SDS011;3844;53.360;9.738;2023-04-03T13:00:41;3.40;;;1.05;;
7605;SDS011;3844;53.360;9.738;2023-04-03T13:02:43;4.35;;;1.10;;
7605;SDS011;3844;53.360;9.738;2023-04-03T13:04:46;5.30;;;1.17;;
7605;SDS011;3844;53.360;9.738;2023-04-03T13:06:47;4.90;;;1.00;;
7605;SDS011;3844;53.360;9.738;2023-04-03T13:08:48;5.20;;;1.10;;
7605;SDS011;3844;53.360;9.738;2023-04-03T13:13:06;3.90;;;0.90;;
7605;SDS011;3844;53.360;9.738;2023-04-03T13:15:14;3.58;;;1.10;;
7605;SDS011;3844;53.360;9.738;2023-04-03T13:17:15;4.38;;;1.00;;
7605;SDS011;3844;53.360;9.738;2023-04-03T13:19:17;6.28;;;1.48;;
7605;SDS011;3844;53.360;9.738;2023-04-03T13:21:19;5.25;;;1.30;;
7605;SDS011;3844;53.360;9.738;2023-04-03T13:23:23;4.60;;;1.10;;
7605;SDS011;3844;53.360;9.738;2023-04-03T13:25:25;3.83;;;0.98;;
7605;SDS011;3844;53.360;9.738;2023-04-03T13:27:29;4.20;;;0.90;;
7605;SDS011;3844;53.360;9.738;2023-04-03T13:29:33;3.45;;;1.00;;
7605;SDS011;3844;53.360;9.738;2023-04-03T13:31:37;4.40;;;1.00;;
7605;SDS011;3844;53.360;9.738;2023-04-03T13:33:41;4.20;;;0.90;;
7605;SDS011;3844;53.360;9.738;2023-04-03T13:36:00;6.43;;;1.17;;
7605;SDS011;3844;53.360;9.738;2023-04-03T13:40:18;5.13;;;1.10;;
7605;SDS011;3844;53.360;9.738;2023-04-03T13:42:22;4.60;;;1.10;;
7605;SDS011;3844;53.360;9.738;2023-04-03T13:44:33;5.82;;;1.08;;
7605;SDS011;3844;53.360;9.738;2023-04-03T13:46:35;4.38;;;1.17;;
7605;SDS011;3844;53.360;9.738;2023-04-03T13:48:40;5.30;;;1.40;;
7605;SDS011;3844;53.360;9.738;2023-04-03T13:50:51;3.85;;;1.10;;
7605;SDS011;3844;53.360;9.738;2023-04-03T13:53:02;5.22;;;1.20;;
7605;SDS011;3844;53.360;9.738;2023-04-03T13:57:27;3.92;;;1.20;;
7605;SDS011;3844;53.360;9.738;2023-04-03T13:59:33;2.83;;;0.93;;
7605;SDS011;3844;53.360;9.738;2023-04-03T14:04:10;4.18;;;1.02;;
7605;SDS011;3844;53.360;9.738;2023-04-03T14:06:17;4.65;;;1.10;;
7605;SDS011;3844;53.360;9.738;2023-04-03T14:08:18;4.00;;;1.00;;